Time;durP1;ratioP1;P1;durP2;ratioP2;P2;SDS_P1;SDS_P2;PMS_P1;PMS_P2;Temp;Humidity;BMP_temperature;BMP_pressure;BME280_temperature;BME280_humidity;BME280_pressure;Samples;Min_cycle;Max_cycle;Signal;HPM_P1;HPM_P2
2023/08/22 00:02:25;;;;;;;8.00;7.25;;;;;;;32.06;35.99;96656.59;5074517;28;20036;-30
2023/08/22 00:04:51;;;;;;;8.10;7.30;;;;;;;32.05;35.75;96657.91;5085218;28;20021;-30
2023/08/22 00:07:16;;;;;;;7.35;6.75;;;;;;;31.89;36.32;96659.28;5080166;28;20435;-30
2023/08/22 00:09:42;;;;;;;8.52;6.70;;;;;;;31.92;36.18;96651.78;5076252;28;20020;-30
2023/08/22 00:12:07;;;;;;;7.50;6.35;;;;;;;32.06;36.18;96650.25;5083057;28;20028;-30
2023/08/22 00:14:33;;;;;;;8.27;7.47;;;;;;;31.85;36.33;96649.75;5074739;28;22184;-30
2023/08/22 00:16:58;;;;;;;8.15;7.32;;;;;;;32.09;36.10;96640.69;5086283;28;20024;-30
2023/08/22 00:19:23;;;;;;;8.23;7.10;;;;;;;32.20;35.82;96651.53;5083033;28;20496;-30
2023/08/22 00:21:49;;;;;;;8.10;7.25;;;;;;;32.12;35.58;96645.94;5076059;28;20014;-30
2023/08/22 00:24:15;;;;;;;7.43;6.72;;;;;;;32.04;35.90;96645.19;5083868;28;20370;-30
2023/08/22 00:26:40;;;;;;;9.07;7.30;;;;;;;31.71;36.26;96649.97;5091582;28;20027;-30
2023/08/22 00:29:06;;;;;;;9.57;7.50;;;;;;;31.84;36.35;96642.66;5086563;28;20351;-30
2023/08/22 00:31:32;;;;;;;8.95;7.60;;;;;;;32.08;35.55;96639.19;5085606;28;20052;-30
2023/08/22 00:34:00;;;;;;;8.20;7.40;;;;;;;32.02;36.06;96638.69;5082990;28;20055;-30
2023/08/22 00:36:26;;;;;;;8.25;7.40;;;;;;;31.93;35.72;96642.06;5082544;28;20421;-30
2023/08/22 00:38:51;;;;;;;9.20;7.47;;;;;;;32.08;35.89;96642.00;5083136;28;20048;-30
2023/08/22 00:41:16;;;;;;;8.68;6.97;;;;;;;31.97;35.86;96636.81;5082597;28;20024;-30
2023/08/22 00:43:42;;;;;;;8.07;7.28;;;;;;;31.88;35.58;96637.41;5082927;28;20058;-31
2023/08/22 00:46:08;;;;;;;8.00;7.20;;;;;;;31.98;35.41;96633.44;5089972;28;20036;-30
2023/08/22 00:48:34;;;;;;;7.85;7.03;;;;;;;31.83;35.89;96638.34;5082793;28;20016;-30
2023/08/22 00:50:59;;;;;;;7.97;7.18;;;;;;;31.85;35.60;96633.66;5089936;28;20119;-30
2023/08/22 00:53:26;;;;;;;7.90;7.05;;;;;;;31.87;35.82;96627.50;5083069;28;20059;-30
2023/08/22 00:55:51;;;;;;;8.05;7.05;;;;;;;31.65;35.60;96634.66;5089453;28;20032;-30
2023/08/22 00:58:17;;;;;;;7.60;6.85;;;;;;;31.99;35.44;96628.59;5083325;28;20144;-31
2023/08/22 01:00:44;;;;;;;9.02;6.78;;;;;;;31.81;35.25;96626.94;5082731;28;20026;-31
2023/08/22 01:03:10;;;;;;;7.88;7.07;;;;;;;31.80;35.33;96631.06;5082625;28;20025;-30
2023/08/22 01:05:42;;;;;;;10.07;7.07;;;;;;;31.86;35.39;96626.75;5085688;28;20016;-30
2023/08/22 01:08:28;;;;;;;8.48;6.68;;;;;;;31.59;36.33;96615.19;5085560;28;20474;-30
2023/08/22 01:10:58;;;;;;;8.82;7.57;;;;;;;31.87;35.61;96621.88;5080569;28;20039;-30
2023/08/22 01:13:30;;;;;;;10.70;7.13;;;;;;;31.85;34.96;96621.69;5076853;28;20035;-30
2023/08/22 01:15:56;;;;;;;8.93;6.55;;;;;;;31.64;35.63;96614.28;5087060;28;20511;-30
2023/08/22 01:18:24;;;;;;;8.60;7.45;;;;;;;31.82;35.33;96617.97;5084573;28;20110;-30
2023/08/22 01:20:50;;;;;;;7.72;7.03;;;;;;;31.66;35.45;96610.91;5081777;28;20012;-30
2023/08/22 01:23:15;;;;;;;7.53;6.80;;;;;;;31.85;35.19;96621.69;5074966;28;20359;-30
2023/08/22 01:25:41;;;;;;;7.38;6.68;;;;;;;31.84;35.09;96612.53;5082543;28;20032;-30
2023/08/22 01:28:25;;;;;;;7.97;6.70;;;;;;;31.68;35.65;96614.63;5078890;28;20111;-31
2023/08/22 01:31:28;;;;;;;8.38;6.80;;;;;;;31.85;35.43;96614.03;5082575;28;20039;-30
2023/08/22 01:34:01;;;;;;;8.88;7.35;;;;;;;31.76;35.24;96615.38;5083446;28;20523;-32
2023/08/22 01:36:28;;;;;;;7.22;6.45;;;;;;;31.88;34.74;96610.09;5085421;28;20457;-30
2023/08/22 01:38:55;;;;;;;9.65;7.53;;;;;;;31.67;34.70;96610.34;5082852;28;20472;-30
2023/08/22 01:41:22;;;;;;;7.72;7.03;;;;;;;31.81;34.92;96610.13;5079005;28;20081;-30
2023/08/22 01:43:50;;;;;;;7.63;6.82;;;;;;;31.63;35.14;96603.59;5084986;28;20020;-30
2023/08/22 01:46:15;;;;;;;7.40;6.70;;;;;;;31.83;35.00;96608.25;5077832;28;20095;-30
2023/08/22 01:48:41;;;;;;;7.63;6.90;;;;;;;31.83;34.90;96607.50;5084723;28;20119;-30
2023/08/22 01:51:06;;;;;;;7.43;6.63;;;;;;;31.78;34.53;96606.38;5082522;28;20024;-31
2023/08/22 01:53:32;;;;;;;7.47;6.78;;;;;;;31.54;34.83;96610.53;5081360;28;20017;-31
2023/08/22 01:55:59;;;;;;;9.38;6.70;;;;;;;31.66;34.29;96605.28;5072910;28;20348;-30
2023/08/22 01:58:25;;;;;;;7.38;6.63;;;;;;;31.74;34.31;96598.38;5084744;28;20027;-30
2023/08/22 02:00:50;;;;;;;8.00;6.28;;;;;;;31.72;34.19;96609.41;5084745;28;20016;-30
2023/08/22 02:03:15;;;;;;;9.80;7.22;;;;;;;31.63;34.44;96606.41;5083606;28;20028;-30
2023/08/22 02:05:41;;;;;;;7.32;6.63;;;;;;;31.63;34.08;96607.16;5080472;28;20070;-30
2023/08/22 02:08:06;;;;;;;6.97;6.38;;;;;;;31.63;34.22;96600.81;5081074;28;20020;-30
2023/08/22 02:10:32;;;;;;;7.82;7.03;;;;;;;31.76;34.25;96601.34;5081172;28;20497;-30
2023/08/22 02:12:57;;;;;;;9.38;6.78;;;;;;;31.60;34.10;96599.88;5079037;28;20060;-30
2023/08/22 02:15:23;;;;;;;9.13;6.30;;;;;;;31.75;34.14;96599.13;5083494;28;20089;-30
2023/08/22 02:17:48;;;;;;;7.38;6.68;;;;;;;31.60;34.31;96599.88;5081407;28;20024;-30
2023/08/22 02:20:14;;;;;;;7.13;6.43;;;;;;;31.56;34.10;96595.94;5080544;28;20059;-30
2023/08/22 02:22:40;;;;;;;8.02;6.80;;;;;;;31.74;34.08;96603.97;5083757;28;20021;-30
2023/08/22 02:25:07;;;;;;;7.65;6.88;;;;;;;31.52;34.14;96601.22;5084337;28;20030;-30
2023/08/22 02:27:33;;;;;;;7.25;6.65;;;;;;;31.65;33.97;96593.31;5075772;28;20031;-31
2023/08/22 02:29:58;;;;;;;10.15;6.57;;;;;;;31.54;33.65;96604.91;5076655;28;20020;-31
2023/08/22 02:32:24;;;;;;;6.60;6.05;;;;;;;31.54;33.92;96596.50;5084822;28;20035;-30
2023/08/22 02:34:50;;;;;;;7.20;6.47;;;;;;;31.53;33.45;96585.88;5075914;28;20020;-30
2023/08/22 02:37:15;;;;;;;7.28;5.97;;;;;;;31.66;34.09;96594.81;5084332;28;20020;-30
2023/08/22 02:39:41;;;;;;;7.00;6.10;;;;;;;31.53;34.00;96589.41;5083240;28;20051;-30
2023/08/22 02:42:06;;;;;;;7.78;6.28;;;;;;;31.47;34.18;96588.88;5083953;28;20029;-30
2023/08/22 02:44:32;;;;;;;7.22;6.13;;;;;;;31.54;33.58;96593.69;5078372;28;20016;-31
2023/08/22 02:46:57;;;;;;;6.82;6.20;;;;;;;31.23;34.14;96589.47;5080964;28;20023;-30
2023/08/22 02:49:22;;;;;;;12.73;6.68;;;;;;;31.53;33.54;96595.00;5080462;28;20133;-30
2023/08/22 02:51:48;;;;;;;7.38;6.55;;;;;;;31.49;33.70;96589.06;5080095;28;20030;-30
2023/08/22 02:54:13;;;;;;;8.32;6.47;;;;;;;31.46;34.24;96587.38;5080566;28;20028;-30
2023/08/22 02:56:39;;;;;;;8.07;6.18;;;;;;;31.38;34.31;96586.66;5071420;28;20029;-30
2023/08/22 02:59:04;;;;;;;7.57;6.88;;;;;;;31.56;34.16;96590.34;5080461;28;20016;-31
2023/08/22 03:01:29;;;;;;;6.97;6.28;;;;;;;31.50;33.96;96587.75;5087553;28;20019;-30
2023/08/22 03:03:56;;;;;;;7.47;6.13;;;;;;;31.46;33.37;96587.38;5086687;28;20024;-30
2023/08/22 03:06:24;;;;;;;10.40;7.15;;;;;;;31.43;34.28;96585.69;5081726;28;20031;-30
2023/08/22 03:08:50;;;;;;;8.18;7.35;;;;;;;31.49;33.81;96588.31;5084910;28;20052;-30
2023/08/22 03:11:15;;;;;;;9.23;6.78;;;;;;;31.44;34.12;96587.19;5075469;28;20020;-30
2023/08/22 03:13:41;;;;;;;6.97;6.28;;;;;;;31.44;33.91;96581.59;5083273;28;20497;-30
2023/08/22 03:16:06;;;;;;;8.63;6.63;;;;;;;31.44;33.69;96584.38;5083844;28;20032;-30
2023/08/22 03:18:32;;;;;;;7.43;6.70;;;;;;;31.38;33.80;96581.78;5082285;28;20031;-30
2023/08/22 03:20:57;;;;;;;9.65;6.90;;;;;;;31.56;33.87;96579.88;5080031;28;20027;-31
2023/08/22 03:23:23;;;;;;;7.20;6.60;;;;;;;31.52;33.74;96573.91;5073186;28;20021;-31
2023/08/22 03:26:02;;;;;;;12.00;6.55;;;;;;;31.59;33.87;96583.59;5079878;28;20086;-30
2023/08/22 03:28:29;;;;;;;7.13;6.45;;;;;;;31.55;33.57;96583.22;5080073;28;20469;-30
2023/08/22 03:31:02;;;;;;;7.55;6.85;;;;;;;31.45;34.12;96583.06;5075221;28;20024;-30
2023/08/22 03:33:28;;;;;;;7.97;7.03;;;;;;;31.61;33.29;96583.78;5077025;28;20047;-30
2023/08/22 03:35:55;;;;;;;7.10;6.45;;;;;;;31.53;33.80;96580.28;5080293;28;20031;-30
2023/08/22 03:38:21;;;;;;;7.25;6.55;;;;;;;31.51;33.79;96580.84;5079662;28;20048;-31
2023/08/22 03:40:48;;;;;;;8.10;7.30;;;;;;;31.45;33.22;96591.47;5080409;28;20012;-30
2023/08/22 03:43:14;;;;;;;7.20;6.57;;;;;;;31.26;34.00;96589.09;5080050;28;20390;-30
2023/08/22 03:45:40;;;;;;;7.95;6.95;;;;;;;31.27;33.84;96592.66;5086553;28;20461;-30
2023/08/22 03:48:06;;;;;;;7.80;7.00;;;;;;;31.34;33.68;96591.88;5080427;28;20046;-30
2023/08/22 03:50:31;;;;;;;7.85;7.18;;;;;;;31.37;33.54;96596.38;5072966;28;20394;-30
2023/08/22 03:52:57;;;;;;;8.77;6.88;;;;;;;31.37;33.71;96593.56;5082631;28;20020;-30
2023/08/22 03:55:22;;;;;;;7.00;6.32;;;;;;;31.37;33.08;96599.91;5084288;28;20040;-30
2023/08/22 03:57:48;;;;;;;8.80;6.68;;;;;;;31.26;33.39;96602.38;5083513;28;20016;-30
2023/08/22 04:00:14;;;;;;;8.00;7.20;;;;;;;31.25;33.31;96603.66;5084444;28;20028;-30
2023/08/22 04:02:39;;;;;;;7.88;7.10;;;;;;;31.40;33.65;96609.97;5082741;28;20009;-30
2023/08/22 04:05:05;;;;;;;10.60;7.10;;;;;;;31.02;33.69;96600.84;5083176;28;20020;-30
2023/08/22 04:07:31;;;;;;;8.50;6.97;;;;;;;31.12;34.07;96609.47;5085720;28;20389;-32
2023/08/22 04:09:57;;;;;;;10.20;6.82;;;;;;;31.35;33.21;96605.34;5087140;28;20023;-30
2023/08/22 04:12:22;;;;;;;7.90;7.20;;;;;;;31.34;33.64;96609.44;5086248;28;20470;-30
2023/08/22 04:14:48;;;;;;;9.02;7.10;;;;;;;31.19;33.52;96600.28;5086527;28;20061;-30
2023/08/22 04:17:13;;;;;;;7.90;7.10;;;;;;;31.02;33.89;96607.19;5086383;28;20035;-30
2023/08/22 04:19:39;;;;;;;9.35;7.20;;;;;;;31.05;33.51;96614.47;5077684;28;20028;-30
2023/08/22 04:22:04;;;;;;;7.90;7.10;;;;;;;31.17;33.81;96606.47;5081484;28;20025;-30
2023/08/22 04:24:31;;;;;;;7.57;6.80;;;;;;;31.30;33.72;96603.47;5091095;28;20028;-30
2023/08/22 04:26:56;;;;;;;7.55;6.78;;;;;;;31.13;34.27;96605.34;5084986;28;20069;-32
2023/08/22 04:29:22;;;;;;;8.38;7.05;;;;;;;31.26;33.93;96614.31;5087000;28;20024;-30
2023/08/22 04:31:48;;;;;;;8.30;7.57;;;;;;;31.18;33.91;96612.81;5084619;28;20020;-30
2023/08/22 04:34:14;;;;;;;8.23;7.43;;;;;;;31.10;34.23;96609.28;5086393;28;20066;-30
2023/08/22 04:36:40;;;;;;;8.98;7.60;;;;;;;31.15;33.91;96602.75;5085133;28;20461;-30
2023/08/22 04:39:05;;;;;;;8.98;7.13;;;;;;;31.22;33.66;96613.94;5078191;28;20089;-31
2023/08/22 04:41:33;;;;;;;7.70;7.00;;;;;;;31.27;33.63;96609.47;5080492;28;20385;-30
2023/08/22 04:43:58;;;;;;;8.55;7.50;;;;;;;31.22;34.24;96613.19;5082242;28;20020;-30
2023/08/22 04:46:24;;;;;;;8.27;7.20;;;;;;;31.18;34.40;96602.34;5079472;28;20496;-30
2023/08/22 04:48:49;;;;;;;10.05;7.47;;;;;;;31.07;34.20;96611.84;5085548;28;20373;-30
2023/08/22 04:51:15;;;;;;;10.68;7.80;;;;;;;31.20;34.64;96608.16;5075705;28;20021;-30
2023/08/22 04:53:40;;;;;;;9.57;7.70;;;;;;;31.32;34.10;96614.84;5082840;28;20469;-30
2023/08/22 04:56:06;;;;;;;11.20;7.05;;;;;;;31.11;34.47;96607.97;5082724;28;20027;-30
2023/08/22 04:58:32;;;;;;;10.35;7.93;;;;;;;30.98;35.22;96611.66;5075515;28;20414;-30
2023/08/22 05:00:58;;;;;;;8.13;7.28;;;;;;;31.06;34.32;96612.41;5074207;28;20021;-30
2023/08/22 05:03:23;;;;;;;8.55;7.57;;;;;;;31.18;35.15;96613.56;5083028;28;20473;-31
2023/08/22 05:05:49;;;;;;;7.75;6.95;;;;;;;31.26;34.40;96619.19;5080389;28;20033;-30
2023/08/22 05:08:15;;;;;;;7.85;7.13;;;;;;;31.23;34.84;96617.50;5082668;28;20020;-31
2023/08/22 05:10:41;;;;;;;8.50;7.63;;;;;;;31.22;34.82;96616.00;5082525;28;20027;-30
2023/08/22 05:13:06;;;;;;;10.95;7.07;;;;;;;31.31;34.68;96612.63;5082593;28;20021;-30
2023/08/22 05:15:32;;;;;;;18.95;7.85;;;;;;;31.13;34.76;96610.97;5083905;28;20035;-30
2023/08/22 05:17:57;;;;;;;8.77;7.75;;;;;;;31.13;35.11;96611.72;5085797;28;20031;-31
2023/08/22 05:20:23;;;;;;;11.23;7.70;;;;;;;31.30;35.21;96608.31;5084884;28;20449;-30
2023/08/22 05:22:48;;;;;;;9.15;7.70;;;;;;;31.10;35.31;96607.22;5084938;28;20016;-30
2023/08/22 05:25:13;;;;;;;9.45;7.53;;;;;;;31.31;35.06;96615.41;5087001;28;20042;-30
2023/08/22 05:27:39;;;;;;;10.52;8.05;;;;;;;31.24;35.06;96616.94;5089543;28;20028;-30
2023/08/22 05:30:06;;;;;;;10.32;7.57;;;;;;;31.30;35.16;96616.72;5082459;28;20017;-30
2023/08/22 05:32:31;;;;;;;11.10;7.10;;;;;;;31.31;35.17;96613.34;5089205;28;20516;-30
2023/08/22 05:34:57;;;;;;;8.15;7.35;;;;;;;31.16;35.18;96621.06;5075320;28;20054;-30
2023/08/22 05:37:22;;;;;;;9.52;7.78;;;;;;;31.08;35.26;96618.19;5085139;28;20016;-30
2023/08/22 05:39:47;;;;;;;8.95;7.55;;;;;;;31.29;35.30;96626.44;5083603;28;20043;-30
2023/08/22 05:42:13;;;;;;;9.00;7.70;;;;;;;31.19;35.60;96619.91;5081911;28;20040;-30
2023/08/22 05:44:39;;;;;;;7.72;6.97;;;;;;;31.20;35.88;96615.81;5081165;28;20016;-30
2023/08/22 05:47:06;;;;;;;12.52;7.43;;;;;;;31.38;35.68;96623.84;5083692;28;20021;-32
2023/08/22 05:49:31;;;;;;;7.82;7.03;;;;;;;31.18;36.31;96619.16;5080375;28;20362;-30
2023/08/22 05:52:04;;;;;;;8.35;6.65;;;;;;;31.31;35.62;96615.41;5081903;28;20027;-31
2023/08/22 05:54:31;;;;;;;8.10;6.88;;;;;;;31.26;35.65;96619.91;5081946;28;20020;-30
2023/08/22 05:56:57;;;;;;;8.70;7.22;;;;;;;31.26;36.27;96619.91;5074125;28;20438;-30
2023/08/22 05:59:23;;;;;;;8.18;7.22;;;;;;;31.32;35.93;96623.25;5081325;28;20095;-30
2023/08/22 06:01:49;;;;;;;8.60;7.50;;;;;;;31.27;35.59;96620.66;5081382;28;20454;-30
2023/08/22 06:04:16;;;;;;;10.27;7.68;;;;;;;31.37;36.15;96627.19;5074894;28;20462;-30
2023/08/22 06:06:41;;;;;;;7.82;7.10;;;;;;;31.46;35.74;96621.00;5084853;28;20016;-30
2023/08/22 06:09:07;;;;;;;8.77;7.47;;;;;;;31.27;36.13;96623.47;5077325;28;20028;-30
2023/08/22 06:11:32;;;;;;;8.77;7.38;;;;;;;31.31;35.99;96623.81;5082452;28;20055;-30
2023/08/22 06:13:57;;;;;;;8.82;8.00;;;;;;;31.35;36.08;96632.59;5079189;28;20021;-30
2023/08/22 06:16:23;;;;;;;8.10;7.07;;;;;;;31.35;36.33;96641.03;5080894;28;20077;-30
2023/08/22 06:18:48;;;;;;;8.15;7.10;;;;;;;31.34;36.54;96631.88;5081591;28;20016;-31
2023/08/22 06:21:14;;;;;;;8.90;7.22;;;;;;;31.32;36.34;96633.72;5080911;28;20024;-30
2023/08/22 06:23:39;;;;;;;7.95;7.18;;;;;;;31.54;35.55;96632.94;5080611;28;20027;-30
2023/08/22 06:26:05;;;;;;;9.93;7.25;;;;;;;31.27;36.37;96632.63;5081145;28;20024;-32
2023/08/22 06:28:30;;;;;;;8.20;7.15;;;;;;;31.41;36.28;96642.31;5080818;28;20103;-30
2023/08/22 06:31:03;;;;;;;8.52;7.28;;;;;;;31.37;36.30;96641.22;5081048;28;20137;-30
2023/08/22 06:33:29;;;;;;;11.43;7.65;;;;;;;31.48;36.22;96635.22;5080833;28;20020;-30
2023/08/22 06:35:55;;;;;;;7.63;6.85;;;;;;;31.61;36.37;96634.25;5076007;28;20133;-30
2023/08/22 06:38:20;;;;;;;8.75;7.60;;;;;;;31.40;36.82;96640.09;5083808;28;20122;-30
2023/08/22 06:40:46;;;;;;;12.40;7.07;;;;;;;31.55;36.62;96639.31;5075695;28;20025;-30
2023/08/22 06:43:11;;;;;;;7.88;7.07;;;;;;;31.49;36.71;96642.31;5083675;28;20032;-30
2023/08/22 06:45:37;;;;;;;9.13;7.60;;;;;;;31.52;36.64;96641.19;5077553;28;20024;-30
2023/08/22 06:48:03;;;;;;;10.27;7.65;;;;;;;31.44;36.67;96634.84;5080657;28;20027;-31
2023/08/22 06:50:28;;;;;;;8.75;7.10;;;;;;;31.54;36.30;96638.56;5084973;28;20016;-30
2023/08/22 06:52:54;;;;;;;9.45;8.55;;;;;;;31.61;36.07;96637.81;5083967;28;20024;-30
2023/08/22 06:55:19;;;;;;;10.48;7.25;;;;;;;31.55;36.07;96633.69;5083191;28;20462;-30
2023/08/22 06:57:45;;;;;;;10.07;8.48;;;;;;;31.55;36.30;96636.50;5083761;28;20024;-30
2023/08/22 07:00:14;;;;;;;9.23;7.20;;;;;;;31.58;36.32;96632.56;5081986;28;20026;-30
2023/08/22 07:02:41;;;;;;;8.98;8.07;;;;;;;31.58;36.19;96636.13;5077675;28;20020;-30
2023/08/22 07:05:08;;;;;;;7.70;6.90;;;;;;;31.67;35.77;96632.03;5076986;28;20031;-30
2023/08/22 07:07:34;;;;;;;9.07;7.32;;;;;;;31.64;36.03;96638.78;5081069;28;20029;-30
2023/08/22 07:09:59;;;;;;;8.27;7.47;;;;;;;31.57;36.43;96636.69;5080193;28;20026;-30
2023/08/22 07:12:24;;;;;;;10.50;7.13;;;;;;;31.61;36.46;96635.00;5080900;28;20024;-30
2023/08/22 07:14:50;;;;;;;8.35;7.00;;;;;;;31.56;36.46;96635.19;5086835;28;20485;-33
2023/08/22 07:17:16;;;;;;;8.02;7.20;;;;;;;31.64;36.65;96638.78;5080062;28;20027;-30
2023/08/22 07:19:41;;;;;;;8.57;6.70;;;;;;;31.72;36.00;96631.84;5074908;28;20111;-31
2023/08/22 07:22:07;;;;;;;7.57;6.82;;;;;;;31.64;36.58;96625.50;5078561;28;20547;-30
2023/08/22 07:24:32;;;;;;;7.93;6.95;;;;;;;31.83;36.21;96629.94;5080442;28;20028;-30
2023/08/22 07:26:57;;;;;;;8.27;7.07;;;;;;;31.87;35.80;96642.28;5080835;28;20074;-31
2023/08/22 07:29:23;;;;;;;8.20;7.43;;;;;;;31.69;36.07;96638.56;5090897;28;20102;-30
2023/08/22 07:31:48;;;;;;;9.23;7.43;;;;;;;31.73;36.19;96641.75;5077321;28;20072;-30
2023/08/22 07:34:14;;;;;;;8.05;7.18;;;;;;;31.88;36.41;96651.44;5084153;28;20361;-30
2023/08/22 07:36:39;;;;;;;8.88;7.40;;;;;;;31.69;36.34;96646.97;5084233;28;20024;-31
2023/08/22 07:39:04;;;;;;;8.07;7.22;;;;;;;31.77;36.66;96661.72;5084521;28;20052;-30
2023/08/22 07:41:30;;;;;;;7.82;7.10;;;;;;;31.80;35.98;96645.81;5084931;28;20077;-30
2023/08/22 07:43:55;;;;;;;9.60;6.95;;;;;;;31.90;35.92;96651.63;5084634;28;20470;-30
2023/08/22 07:46:21;;;;;;;10.52;7.78;;;;;;;31.97;35.69;96659.25;5090345;28;20035;-30
2023/08/22 07:48:46;;;;;;;9.23;7.13;;;;;;;31.98;36.03;96646.72;5083537;28;20420;-30
2023/08/22 07:51:12;;;;;;;7.65;6.95;;;;;;;31.87;36.15;96652.75;5078694;28;20478;-30
2023/08/22 07:53:37;;;;;;;9.38;7.82;;;;;;;31.91;36.24;96656.63;5082215;28;20025;-30
2023/08/22 07:56:03;;;;;;;8.50;7.65;;;;;;;32.02;35.73;96659.03;5091431;28;20028;-30
2023/08/22 07:58:28;;;;;;;7.82;7.03;;;;;;;32.03;35.78;96659.78;5083523;28;20024;-30
2023/08/22 08:00:54;;;;;;;8.27;7.18;;;;;;;32.05;35.92;96652.28;5090184;28;20458;-30
2023/08/22 08:03:20;;;;;;;8.70;7.88;;;;;;;31.95;35.86;96650.66;5084655;28;20020;-30
2023/08/22 08:05:46;;;;;;;7.93;7.20;;;;;;;32.02;35.97;96655.50;5083743;28;20021;-31
2023/08/22 08:08:11;;;;;;;8.43;7.53;;;;;;;32.01;35.81;96651.22;5083235;28;20031;-30
2023/08/22 08:10:37;;;;;;;8.05;7.00;;;;;;;31.90;36.32;96640.41;5084279;28;20025;-30
2023/08/22 08:13:03;;;;;;;10.20;7.07;;;;;;;31.93;36.21;96642.06;5083677;28;20099;-30
2023/08/22 08:15:28;;;;;;;8.20;7.40;;;;;;;31.93;36.36;96647.66;5084509;28;20466;-30
2023/08/22 08:17:54;;;;;;;8.48;7.68;;;;;;;31.98;36.29;96646.72;5086526;28;20027;-30
2023/08/22 08:20:19;;;;;;;7.75;6.90;;;;;;;32.14;35.92;96642.56;5086909;28;20017;-30
2023/08/22 08:22:44;;;;;;;8.68;7.82;;;;;;;32.00;36.03;96641.28;5075921;28;20075;-31
2023/08/22 08:25:10;;;;;;;10.10;7.50;;;;;;;31.90;36.17;96643.19;5083110;28;20108;-30
2023/08/22 08:27:36;;;;;;;13.00;7.22;;;;;;;32.11;35.95;96646.50;5076671;28;20020;-30
2023/08/22 08:30:05;;;;;;;7.90;6.65;;;;;;;32.03;36.12;96642.94;5086595;28;20032;-31
2023/08/22 08:32:31;;;;;;;8.05;7.25;;;;;;;32.05;36.39;96643.88;5085870;28;20016;-30
2023/08/22 08:34:56;;;;;;;9.50;7.13;;;;;;;32.00;36.16;96641.28;5083074;28;20077;-30
2023/08/22 08:37:22;;;;;;;8.77;7.40;;;;;;;32.07;36.08;96640.50;5075741;28;20016;-30
2023/08/22 08:39:47;;;;;;;8.18;7.38;;;;;;;32.06;35.59;96639.75;5082833;28;20036;-30
2023/08/22 08:42:14;;;;;;;7.78;7.15;;;;;;;32.10;36.16;96642.94;5083404;28;20100;-30
2023/08/22 08:44:40;;;;;;;8.50;7.70;;;;;;;32.01;36.02;96639.97;5083058;28;20050;-30
2023/08/22 08:47:07;;;;;;;8.55;7.43;;;;;;;32.24;35.90;96637.88;5084247;28;20028;-30
2023/08/22 08:49:34;;;;;;;9.82;7.55;;;;;;;32.13;36.14;96650.22;5086094;28;20020;-31
2023/08/22 08:52:05;;;;;;;8.50;7.45;;;;;;;32.09;36.26;96646.31;5084909;28;20048;-30
2023/08/22 08:54:34;;;;;;;8.52;7.68;;;;;;;32.09;36.26;96641.44;5082759;28;20381;-30
2023/08/22 08:57:00;;;;;;;9.00;6.75;;;;;;;32.11;36.32;96638.81;5074176;28;20024;-30
2023/08/22 08:59:27;;;;;;;7.72;6.90;;;;;;;32.18;36.14;96637.31;5086035;28;20103;-31
2023/08/22 09:01:52;;;;;;;7.50;6.80;;;;;;;32.20;36.17;96640.31;5087337;28;20012;-30
2023/08/22 09:04:19;;;;;;;8.13;7.32;;;;;;;32.16;36.04;96639.16;5084219;28;20043;-30
2023/08/22 09:06:46;;;;;;;11.77;7.80;;;;;;;32.23;35.95;96639.19;5085477;28;20103;-30
2023/08/22 09:09:13;;;;;;;10.27;7.50;;;;;;;32.27;35.92;96633.91;5077546;28;20115;-30
2023/08/22 09:11:46;;;;;;;11.13;7.28;;;;;;;32.17;35.92;96632.97;5090102;28;20017;-31
2023/08/22 09:14:17;;;;;;;9.77;7.63;;;;;;;32.24;36.09;96628.69;5082671;28;20029;-30
2023/08/22 09:16:42;;;;;;;8.68;7.78;;;;;;;32.29;36.02;96625.66;5090860;28;20485;-30
2023/08/22 09:19:08;;;;;;;8.70;7.78;;;;;;;32.21;36.04;96630.56;5080144;28;20039;-31
2023/08/22 09:21:33;;;;;;;7.75;7.05;;;;;;;32.33;35.78;96626.03;5082037;28;20013;-31
2023/08/22 09:24:09;;;;;;;9.93;8.20;;;;;;;32.34;35.82;96638.75;5085967;28;20110;-30
2023/08/22 09:26:36;;;;;;;9.27;7.75;;;;;;;32.27;35.45;96627.56;5076754;28;20081;-31
2023/08/22 09:29:06;;;;;;;9.40;8.15;;;;;;;32.31;35.49;96625.09;5078646;28;20023;-30
2023/08/22 09:31:33;;;;;;;9.25;7.95;;;;;;;32.27;35.68;96621.97;5077947;28;20020;-30
2023/08/22 09:33:58;;;;;;;13.50;7.80;;;;;;;32.35;35.83;96631.81;5082521;28;20156;-31
2023/08/22 09:36:24;;;;;;;9.05;7.70;;;;;;;32.32;35.84;96620.97;5087757;28;20117;-30
2023/08/22 09:38:52;;;;;;;8.40;7.57;;;;;;;32.36;35.82;96626.97;5082698;28;20051;-31
2023/08/22 09:41:26;;;;;;;10.13;8.05;;;;;;;32.38;35.79;96619.47;5074392;28;20020;-30
2023/08/22 09:43:54;;;;;;;8.13;7.20;;;;;;;32.38;36.04;96616.66;5082214;28;20085;-30
2023/08/22 09:46:23;;;;;;;8.93;7.90;;;;;;;32.42;36.02;96616.25;5078152;28;20099;-30
2023/08/22 09:48:49;;;;;;;11.45;7.88;;;;;;;32.33;36.24;96603.56;5084627;28;20381;-31
2023/08/22 09:51:19;;;;;;;10.80;7.82;;;;;;;32.42;35.61;96617.00;5075855;28;20020;-30
2023/08/22 09:53:59;;;;;;;11.27;7.72;;;;;;;32.49;35.16;96607.06;5084804;28;20019;-31
2023/08/22 09:56:25;;;;;;;9.70;7.00;;;;;;;32.38;35.60;96608.25;5084638;28;20035;-30
2023/08/22 09:58:52;;;;;;;9.20;7.40;;;;;;;32.46;35.23;96603.31;5084648;28;20024;-31
2023/08/22 10:01:19;;;;;;;8.43;7.28;;;;;;;32.47;34.92;96602.00;5076424;28;20422;-30
2023/08/22 10:03:46;;;;;;;8.40;7.60;;;;;;;32.50;34.98;96591.69;5084342;28;20024;-30
2023/08/22 10:06:13;;;;;;;7.82;7.13;;;;;;;32.52;35.06;96594.66;5076123;28;20040;-30
2023/08/22 10:08:45;;;;;;;8.13;7.32;;;;;;;32.56;35.22;96588.66;5084478;28;20022;-31
2023/08/22 10:11:12;;;;;;;9.32;7.38;;;;;;;32.58;34.53;96588.84;5077010;28;20028;-30
2023/08/22 10:13:39;;;;;;;9.00;7.38;;;;;;;32.63;34.10;96579.44;5080703;28;20032;-30
2023/08/22 10:16:05;;;;;;;9.25;7.18;;;;;;;32.66;33.73;96581.09;5087041;28;20028;-30
2023/08/22 10:18:31;;;;;;;10.90;7.15;;;;;;;32.63;34.11;96579.44;5082523;28;20020;-30
2023/08/22 10:20:57;;;;;;;7.82;7.13;;;;;;;32.61;34.07;96580.03;5077949;28;20043;-30
2023/08/22 10:23:44;;;;;;;7.78;7.00;;;;;;;32.68;33.95;96570.03;5083928;28;20541;-30
2023/08/22 10:26:10;;;;;;;9.30;7.13;;;;;;;32.59;34.12;96565.81;5086153;28;20016;-30
2023/08/22 10:28:42;;;;;;;7.90;7.10;;;;;;;32.68;33.91;96562.34;5082706;28;20032;-30
2023/08/22 10:31:07;;;;;;;8.05;7.25;;;;;;;32.75;32.97;96563.66;5078555;28;20020;-30
2023/08/22 10:33:33;;;;;;;7.57;6.82;;;;;;;32.74;33.08;96570.59;5073711;28;20025;-30
2023/08/22 10:36:07;;;;;;;7.25;6.45;;;;;;;32.77;32.11;96566.63;5081336;28;20020;-30
2023/08/22 10:38:53;;;;;;;8.05;6.60;;;;;;;32.70;32.24;96568.16;5080258;28;20051;-30
2023/08/22 10:41:23;;;;;;;8.77;6.38;;;;;;;32.74;32.15;96559.38;5077435;28;20020;-30
2023/08/22 10:43:49;;;;;;;7.30;6.50;;;;;;;32.89;31.42;96569.75;5075377;28;20017;-31
2023/08/22 10:46:14;;;;;;;8.63;6.63;;;;;;;32.88;31.23;96560.56;5080922;28;20104;-30
2023/08/22 10:48:40;;;;;;;8.70;6.50;;;;;;;32.99;30.88;96554.47;5080447;28;20016;-30
2023/08/22 10:51:07;;;;;;;8.48;6.50;;;;;;;32.92;31.37;96546.84;5074238;28;20060;-30
2023/08/22 10:53:42;;;;;;;9.77;6.90;;;;;;;32.95;31.33;96554.13;5084192;28;20024;-31
2023/08/22 10:56:21;;;;;;;8.73;6.28;;;;;;;32.98;31.57;96547.38;5075605;28;20381;-31
2023/08/22 10:58:58;;;;;;;9.52;6.15;;;;;;;32.91;31.04;96542.53;5083832;28;20026;-30
2023/08/22 11:01:24;;;;;;;12.50;6.72;;;;;;;32.93;30.77;96545.53;5079999;28;20034;-30
2023/08/22 11:03:51;;;;;;;9.10;6.55;;;;;;;32.96;30.43;96544.38;5072699;28;20020;-31
2023/08/22 11:06:18;;;;;;;8.35;6.45;;;;;;;33.05;30.62;96534.56;5080989;28;20021;-30
2023/08/22 11:08:44;;;;;;;7.28;6.60;;;;;;;33.01;31.58;96532.16;5080070;28;20020;-31
2023/08/22 11:11:15;;;;;;;7.80;6.40;;;;;;;33.02;31.33;96539.25;5080382;28;20020;-30
2023/08/22 11:13:41;;;;;;;8.60;6.53;;;;;;;33.00;31.04;96533.50;5080173;28;20040;-31
2023/08/22 11:16:15;;;;;;;8.65;6.35;;;;;;;33.12;29.88;96537.31;5086849;28;20372;-30
2023/08/22 11:18:42;;;;;;;6.97;6.05;;;;;;;33.07;29.93;96543.16;5080011;28;20085;-30
2023/08/22 11:21:08;;;;;;;9.95;5.90;;;;;;;33.09;29.87;96529.28;5080549;28;20024;-30
2023/08/22 11:23:34;;;;;;;8.82;5.68;;;;;;;33.12;29.44;96531.69;5080815;28;20501;-30
2023/08/22 11:26:02;;;;;;;8.93;6.80;;;;;;;33.19;29.33;96533.69;5076961;28;20032;-30
2023/08/22 11:28:35;;;;;;;6.90;5.90;;;;;;;33.14;29.56;96528.28;5083393;28;20054;-31
2023/08/22 11:31:01;;;;;;;10.90;6.13;;;;;;;33.15;29.51;96533.34;5083447;28;20497;-31